Terminal Aerodrome Forecast
Issued by NWS

Home | Current Version | Previous Version | Text Only | Print | Product List | Glossary On
Versions: 1 2 3 4 5 6 7 8 9 10 11 12 13 14 15
000
FTUS44 KHGX 161126
TAFCXO
TAF
KCXO 161126Z 1612/1712 36013G23KT 4SM -SNPL BR OVC009
      TEMPO 1612/1614 2SM -SNPL BR
     FM161700 36013G23KT 5SM -SN BR SCT008 OVC015
     FM162000 36013KT P6SM -SN OVC025
     FM162200 35010KT P6SM SCT035 BKN050
     FM170100 34007KT P6SM BKN100
     FM170800 35003KT P6SM SKC=

USA.gov is the U.S. government's official web portal to all federal, state and local government web resources and services.